sensor_id;sensor_type;location;lat;lon;timestamp;pressure;altitude;pressure_sealevel;temperature;humidity
17311;BME280;8773;43.300;0.394;2022-10-16T00:01:14;99068.91;;;15.91;100.00
17311;BME280;8773;43.300;0.394;2022-10-16T00:03:44;99078.63;;;16.00;100.00
17311;BME280;8773;43.300;0.394;2022-10-16T00:06:16;99075.03;;;15.89;100.00
17311;BME280;8773;43.300;0.394;2022-10-16T00:08:44;99074.03;;;15.76;100.00
17311;BME280;8773;43.300;0.394;2022-10-16T00:11:15;99071.50;;;15.87;100.00
17311;BME280;8773;43.300;0.394;2022-10-16T00:13:45;99068.00;;;15.88;100.00
17311;BME280;8773;43.300;0.394;2022-10-16T00:16:13;99071.53;;;15.90;100.00
17311;BME280;8773;43.300;0.394;2022-10-16T00:18:41;99064.38;;;15.77;100.00
17311;BME280;8773;43.300;0.394;2022-10-16T00:21:12;99064.31;;;15.69;100.00
17311;BME280;8773;43.300;0.394;2022-10-16T00:23:41;99060.69;;;15.53;100.00
17311;BME280;8773;43.300;0.394;2022-10-16T00:26:12;99058.16;;;15.65;100.00
17311;BME280;8773;43.300;0.394;2022-10-16T00:28:40;99067.91;;;15.76;100.00
17311;BME280;8773;43.300;0.394;2022-10-16T00:31:10;99067.06;;;15.80;100.00
17311;BME280;8773;43.300;0.394;2022-10-16T00:33:39;99062.47;;;15.59;100.00
17311;BME280;8773;43.300;0.394;2022-10-16T00:36:10;99071.38;;;15.70;100.00
17311;BME280;8773;43.300;0.394;2022-10-16T00:38:38;99076.69;;;15.79;100.00
17311;BME280;8773;43.300;0.394;2022-10-16T00:41:11;99071.88;;;15.35;100.00
17311;BME280;8773;43.300;0.394;2022-10-16T00:43:42;99072.94;;;15.54;100.00
17311;BME280;8773;43.300;0.394;2022-10-16T00:46:15;99087.19;;;15.76;100.00
17311;BME280;8773;43.300;0.394;2022-10-16T00:48:48;99074.16;;;15.90;100.00
17311;BME280;8773;43.300;0.394;2022-10-16T00:51:19;99076.81;;;15.94;100.00
17311;BME280;8773;43.300;0.394;2022-10-16T00:53:49;99076.59;;;15.68;100.00
17311;BME280;8773;43.300;0.394;2022-10-16T00:56:19;99075.84;;;15.80;100.00
17311;BME280;8773;43.300;0.394;2022-10-16T00:58:47;99082.00;;;15.84;100.00
17311;BME280;8773;43.300;0.394;2022-10-16T01:01:15;99078.25;;;15.59;100.00
17311;BME280;8773;43.300;0.394;2022-10-16T01:03:43;99082.66;;;15.61;100.00
17311;BME280;8773;43.300;0.394;2022-10-16T01:06:21;99082.84;;;15.81;100.00
17311;BME280;8773;43.300;0.394;2022-10-16T01:09:11;99083.81;;;15.94;100.00
17311;BME280;8773;43.300;0.394;2022-10-16T01:11:47;99103.22;;;16.02;100.00
17311;BME280;8773;43.300;0.394;2022-10-16T01:14:22;99099.66;;;15.97;100.00
17311;BME280;8773;43.300;0.394;2022-10-16T01:16:58;99105.84;;;16.02;100.00
17311;BME280;8773;43.300;0.394;2022-10-16T01:19:50;99106.75;;;16.07;100.00
17311;BME280;8773;43.300;0.394;2022-10-16T01:22:26;99111.09;;;16.02;100.00
17311;BME280;8773;43.300;0.394;2022-10-16T01:25:01;99108.44;;;16.01;100.00
17311;BME280;8773;43.300;0.394;2022-10-16T01:27:35;99106.72;;;16.04;100.00
17311;BME280;8773;43.300;0.394;2022-10-16T01:30:10;99112.03;;;16.10;100.00
17311;BME280;8773;43.300;0.394;2022-10-16T01:32:44;99100.66;;;16.13;100.00
17311;BME280;8773;43.300;0.394;2022-10-16T01:35:18;99100.25;;;15.68;100.00
17311;BME280;8773;43.300;0.394;2022-10-16T01:37:53;99096.75;;;15.69;100.00
17311;BME280;8773;43.300;0.394;2022-10-16T01:40:24;99089.84;;;15.81;100.00
17311;BME280;8773;43.300;0.394;2022-10-16T01:42:58;99089.03;;;15.85;100.00
17311;BME280;8773;43.300;0.394;2022-10-16T01:45:28;99087.31;;;15.91;100.00
17311;BME280;8773;43.300;0.394;2022-10-16T01:48:00;99090.88;;;15.95;100.00
17311;BME280;8773;43.300;0.394;2022-10-16T01:50:33;99091.69;;;15.88;100.00
17311;BME280;8773;43.300;0.394;2022-10-16T01:53:04;99104.84;;;15.88;100.00
17311;BME280;8773;43.300;0.394;2022-10-16T01:55:36;99109.16;;;15.80;100.00
17311;BME280;8773;43.300;0.394;2022-10-16T01:58:07;99107.38;;;15.82;100.00
17311;BME280;8773;43.300;0.394;2022-10-16T02:00:37;99111.84;;;15.87;100.00
17311;BME280;8773;43.300;0.394;2022-10-16T02:03:07;99116.28;;;15.96;100.00
17311;BME280;8773;43.300;0.394;2022-10-16T02:05:40;99110.91;;;15.81;100.00
17311;BME280;8773;43.300;0.394;2022-10-16T02:08:10;99107.47;;;15.88;100.00
17311;BME280;8773;43.300;0.394;2022-10-16T02:10:38;99107.53;;;15.99;100.00
17311;BME280;8773;43.300;0.394;2022-10-16T02:13:10;99104.06;;;16.04;100.00
17311;BME280;8773;43.300;0.394;2022-10-16T02:15:40;99104.06;;;16.04;100.00
17311;BME280;8773;43.300;0.394;2022-10-16T02:18:09;99111.16;;;16.11;100.00
17311;BME280;8773;43.300;0.394;2022-10-16T02:20:41;99109.53;;;16.21;100.00
17311;BME280;8773;43.300;0.394;2022-10-16T02:23:17;99113.94;;;16.25;100.00
17311;BME280;8773;43.300;0.394;2022-10-16T02:25:47;99110.31;;;16.12;100.00
17311;BME280;8773;43.300;0.394;2022-10-16T02:28:22;99115.50;;;16.06;100.00
17311;BME280;8773;43.300;0.394;2022-10-16T02:30:55;99113.81;;;16.14;100.00
17311;BME280;8773;43.300;0.394;2022-10-16T02:33:25;99111.13;;;16.08;100.00
17311;BME280;8773;43.300;0.394;2022-10-16T02:35:55;99111.06;;;15.99;100.00
17311;BME280;8773;43.300;0.394;2022-10-16T02:38:25;99104.47;;;15.51;100.00
17311;BME280;8773;43.300;0.394;2022-10-16T02:40:54;99103.84;;;15.77;100.00
17311;BME280;8773;43.300;0.394;2022-10-16T02:43:24;99110.09;;;15.89;100.00
17311;BME280;8773;43.300;0.394;2022-10-16T02:45:52;99106.59;;;15.87;100.00
17311;BME280;8773;43.300;0.394;2022-10-16T02:48:20;99111.00;;;15.93;100.00
17311;BME280;8773;43.300;0.394;2022-10-16T02:50:49;99110.94;;;15.85;100.00
17311;BME280;8773;43.300;0.394;2022-10-16T02:53:17;99110.91;;;15.81;100.00
17311;BME280;8773;43.300;0.394;2022-10-16T02:55:45;99114.50;;;15.90;100.00
17311;BME280;8773;43.300;0.394;2022-10-16T02:58:13;99111.06;;;16.01;100.00
17311;BME280;8773;43.300;0.394;2022-10-16T03:00:42;99111.16;;;16.10;100.00
17311;BME280;8773;43.300;0.394;2022-10-16T03:03:10;99111.06;;;16.01;100.00
17311;BME280;8773;43.300;0.394;2022-10-16T03:05:38;99111.09;;;16.02;100.00
17311;BME280;8773;43.300;0.394;2022-10-16T03:08:06;99114.53;;;15.97;100.00
17311;BME280;8773;43.300;0.394;2022-10-16T03:10:34;99115.41;;;15.96;100.00
17311;BME280;8773;43.300;0.394;2022-10-16T03:13:02;99111.00;;;15.90;100.00
17311;BME280;8773;43.300;0.394;2022-10-16T03:15:30;99104.78;;;15.83;100.00
17311;BME280;8773;43.300;0.394;2022-10-16T03:18:00;99106.56;;;15.86;100.00
17311;BME280;8773;43.300;0.394;2022-10-16T03:20:27;99103.03;;;15.82;100.00
17311;BME280;8773;43.300;0.394;2022-10-16T03:22:55;99103.97;;;15.87;100.00
17311;BME280;8773;43.300;0.394;2022-10-16T03:25:23;99109.06;;;15.73;100.00
17311;BME280;8773;43.300;0.394;2022-10-16T03:27:52;99091.13;;;15.34;100.00
17311;BME280;8773;43.300;0.394;2022-10-16T03:30:20;99096.34;;;15.31;100.00
17311;BME280;8773;43.300;0.394;2022-10-16T03:32:48;99099.03;;;15.36;100.00
17311;BME280;8773;43.300;0.394;2022-10-16T03:35:22;99091.97;;;15.30;100.00
17311;BME280;8773;43.300;0.394;2022-10-16T03:37:51;99099.78;;;15.24;100.00
17311;BME280;8773;43.300;0.394;2022-10-16T03:40:19;99104.19;;;15.25;100.00
17311;BME280;8773;43.300;0.394;2022-10-16T03:42:47;99101.41;;;15.16;100.00
17311;BME280;8773;43.300;0.394;2022-10-16T03:45:15;99105.69;;;15.09;100.00
17311;BME280;8773;43.300;0.394;2022-10-16T03:47:43;99103.16;;;15.17;100.00
17311;BME280;8773;43.300;0.394;2022-10-16T03:50:11;99104.94;;;15.19;100.00
17311;BME280;8773;43.300;0.394;2022-10-16T03:52:40;99108.09;;;14.91;100.00
17311;BME280;8773;43.300;0.394;2022-10-16T03:55:08;99108.06;;;14.89;100.00
17311;BME280;8773;43.300;0.394;2022-10-16T03:57:36;99109.81;;;14.89;100.00
17311;BME280;8773;43.300;0.394;2022-10-16T04:00:05;99115.16;;;14.96;100.00
17311;BME280;8773;43.300;0.394;2022-10-16T04:02:33;99113.25;;;14.83;100.00
17311;BME280;8773;43.300;0.394;2022-10-16T04:05:02;99116.94;;;14.99;100.00
17311;BME280;8773;43.300;0.394;2022-10-16T04:07:32;99110.59;;;14.81;100.00
17311;BME280;8773;43.300;0.394;2022-10-16T04:10:01;99113.38;;;14.94;100.00
17311;BME280;8773;43.300;0.394;2022-10-16T04:12:29;99105.53;;;14.97;100.00
17311;BME280;8773;43.300;0.394;2022-10-16T04:14:57;99108.09;;;14.92;100.00
17311;BME280;8773;43.300;0.394;2022-10-16T04:17:25;99108.09;;;14.92;100.00
17311;BME280;8773;43.300;0.394;2022-10-16T04:19:54;99117.41;;;14.69;100.00
17311;BME280;8773;43.300;0.394;2022-10-16T04:22:22;99109.03;;;14.33;100.00
17311;BME280;8773;43.300;0.394;2022-10-16T04:24:53;99118.13;;;14.55;100.00
17311;BME280;8773;43.300;0.394;2022-10-16T04:27:22;99117.34;;;14.64;100.00
17311;BME280;8773;43.300;0.394;2022-10-16T04:29:50;99123.34;;;14.55;100.00
17311;BME280;8773;43.300;0.394;2022-10-16T04:32:18;99123.34;;;14.55;100.00
17311;BME280;8773;43.300;0.394;2022-10-16T04:34:46;99116.94;;;14.35;100.00
17311;BME280;8773;43.300;0.394;2022-10-16T04:37:14;99115.34;;;14.46;100.00
17311;BME280;8773;43.300;0.394;2022-10-16T04:39:42;99116.97;;;14.39;100.00
17311;BME280;8773;43.300;0.394;2022-10-16T04:42:11;99111.50;;;14.24;100.00
17311;BME280;8773;43.300;0.394;2022-10-16T04:44:40;99107.25;;;14.31;100.00
17311;BME280;8773;43.300;0.394;2022-10-16T04:47:08;99102.59;;;14.16;100.00
17311;BME280;8773;43.300;0.394;2022-10-16T04:49:36;99111.63;;;14.32;100.00
17311;BME280;8773;43.300;0.394;2022-10-16T04:52:04;99116.31;;;14.54;100.00
17311;BME280;8773;43.300;0.394;2022-10-16T04:54:32;99109.47;;;14.64;100.00
17311;BME280;8773;43.300;0.394;2022-10-16T04:57:00;99112.28;;;14.76;100.00
17311;BME280;8773;43.300;0.394;2022-10-16T04:59:28;99119.41;;;14.85;100.00
17311;BME280;8773;43.300;0.394;2022-10-16T05:01:58;99116.44;;;14.60;100.00
17311;BME280;8773;43.300;0.394;2022-10-16T05:04:26;99124.53;;;14.76;100.00
17311;BME280;8773;43.300;0.394;2022-10-16T05:06:54;99120.25;;;14.84;100.00
17311;BME280;8773;43.300;0.394;2022-10-16T05:09:22;99124.56;;;14.79;100.00
17311;BME280;8773;43.300;0.394;2022-10-16T05:11:50;99125.53;;;14.87;100.00
17311;BME280;8773;43.300;0.394;2022-10-16T05:14:18;99119.53;;;14.96;100.00
17311;BME280;8773;43.300;0.394;2022-10-16T05:16:46;99123.91;;;14.97;100.00
17311;BME280;8773;43.300;0.394;2022-10-16T05:19:16;99122.31;;;15.08;100.00
17311;BME280;8773;43.300;0.394;2022-10-16T05:21:59;99133.09;;;15.26;100.00
17311;BME280;8773;43.300;0.394;2022-10-16T05:24:27;99134.06;;;15.35;100.00
17311;BME280;8773;43.300;0.394;2022-10-16T05:26:55;99127.78;;;15.20;100.00
17311;BME280;8773;43.300;0.394;2022-10-16T05:29:23;99126.94;;;15.26;100.00
17311;BME280;8773;43.300;0.394;2022-10-16T05:31:52;99129.59;;;15.26;100.00
17311;BME280;8773;43.300;0.394;2022-10-16T05:34:21;99123.63;;;15.41;100.00
17311;BME280;8773;43.300;0.394;2022-10-16T05:36:50;99134.16;;;15.44;100.00
17311;BME280;8773;43.300;0.394;2022-10-16T05:39:18;99132.19;;;15.24;100.00
17311;BME280;8773;43.300;0.394;2022-10-16T05:41:46;99130.59;;;15.39;100.00
17311;BME280;8773;43.300;0.394;2022-10-16T05:44:14;99133.31;;;15.45;100.00
17311;BME280;8773;43.300;0.394;2022-10-16T05:46:42;99142.97;;;15.49;100.00
17311;BME280;8773;43.300;0.394;2022-10-16T05:49:10;99132.44;;;15.46;100.00
17311;BME280;8773;43.300;0.394;2022-10-16T05:51:40;99144.63;;;15.39;100.00
17311;BME280;8773;43.300;0.394;2022-10-16T05:54:08;99138.44;;;15.34;100.00
17311;BME280;8773;43.300;0.394;2022-10-16T05:56:36;99135.03;;;15.44;100.00
17311;BME280;8773;43.300;0.394;2022-10-16T05:59:05;99138.41;;;15.31;100.00
17311;BME280;8773;43.300;0.394;2022-10-16T06:01:33;99148.16;;;15.41;100.00
17311;BME280;8773;43.300;0.394;2022-10-16T06:04:01;99152.59;;;15.47;100.00
17311;BME280;8773;43.300;0.394;2022-10-16T06:06:29;99142.13;;;15.51;100.00
17311;BME280;8773;43.300;0.394;2022-10-16T06:08:59;99153.53;;;15.52;100.00
17311;BME280;8773;43.300;0.394;2022-10-16T06:11:29;99149.59;;;15.19;100.00
17311;BME280;8773;43.300;0.394;2022-10-16T06:13:58;99148.94;;;15.33;100.00
17311;BME280;8773;43.300;0.394;2022-10-16T06:16:28;99145.47;;;15.35;100.00
17311;BME280;8773;43.300;0.394;2022-10-16T06:18:56;99156.84;;;15.36;100.00
17311;BME280;8773;43.300;0.394;2022-10-16T06:21:26;99151.72;;;15.46;100.00
17311;BME280;8773;43.300;0.394;2022-10-16T06:23:56;99149.13;;;15.51;100.00
17311;BME280;8773;43.300;0.394;2022-10-16T06:26:27;99146.69;;;15.65;100.00
17311;BME280;8773;43.300;0.394;2022-10-16T06:28:57;99159.91;;;15.74;100.00
17311;BME280;8773;43.300;0.394;2022-10-16T06:31:27;99161.72;;;15.78;100.00
17311;BME280;8773;43.300;0.394;2022-10-16T06:33:57;99160.84;;;15.81;100.00
17311;BME280;8773;43.300;0.394;2022-10-16T06:36:26;99160.91;;;15.85;100.00
17311;BME280;8773;43.300;0.394;2022-10-16T06:38:54;99164.53;;;15.95;100.00
17311;BME280;8773;43.300;0.394;2022-10-16T06:41:22;99158.38;;;15.96;100.00
17311;BME280;8773;43.300;0.394;2022-10-16T06:43:52;99174.25;;;16.02;100.00
17311;BME280;8773;43.300;0.394;2022-10-16T06:46:22;99176.00;;;16.03;100.00
17311;BME280;8773;43.300;0.394;2022-10-16T06:48:51;99174.25;;;16.02;100.00
17311;BME280;8773;43.300;0.394;2022-10-16T06:51:21;99173.25;;;15.94;100.00
17311;BME280;8773;43.300;0.394;2022-10-16T06:53:50;99173.13;;;15.80;100.00
17311;BME280;8773;43.300;0.394;2022-10-16T06:56:34;99168.53;;;15.61;100.00
17311;BME280;8773;43.300;0.394;2022-10-16T06:59:04;99168.56;;;15.62;100.00
17311;BME280;8773;43.300;0.394;2022-10-16T07:01:32;99167.72;;;15.65;100.00
17311;BME280;8773;43.300;0.394;2022-10-16T07:04:01;99174.56;;;15.50;100.00
17311;BME280;8773;43.300;0.394;2022-10-16T07:06:32;99171.06;;;15.50;100.00
17311;BME280;8773;43.300;0.394;2022-10-16T07:09:03;99172.38;;;15.17;100.00
17311;BME280;8773;43.300;0.394;2022-10-16T07:11:32;99165.63;;;15.35;100.00
17311;BME280;8773;43.300;0.394;2022-10-16T07:14:00;99168.34;;;15.47;100.00
17311;BME280;8773;43.300;0.394;2022-10-16T07:16:31;99178.94;;;15.50;100.00
17311;BME280;8773;43.300;0.394;2022-10-16T07:19:00;99170.31;;;15.63;100.00
17311;BME280;8773;43.300;0.394;2022-10-16T07:21:30;99174.91;;;15.83;100.00
17311;BME280;8773;43.300;0.394;2022-10-16T07:24:04;99182.06;;;15.99;100.00
17311;BME280;8773;43.300;0.394;2022-10-16T07:26:34;99183.88;;;16.03;100.00
17311;BME280;8773;43.300;0.394;2022-10-16T07:29:02;99183.91;;;16.05;100.00
17311;BME280;8773;43.300;0.394;2022-10-16T07:31:32;99189.00;;;15.88;100.00
17311;BME280;8773;43.300;0.394;2022-10-16T07:34:02;99185.41;;;15.81;100.00
17311;BME280;8773;43.300;0.394;2022-10-16T07:36:30;99187.19;;;15.82;100.00
17311;BME280;8773;43.300;0.394;2022-10-16T07:38:58;99188.22;;;15.98;100.00
17311;BME280;8773;43.300;0.394;2022-10-16T07:41:27;99196.38;;;16.23;100.00
17311;BME280;8773;43.300;0.394;2022-10-16T07:43:56;99203.38;;;16.21;100.00
17311;BME280;8773;43.300;0.394;2022-10-16T07:46:27;99199.63;;;16.02;100.00
17311;BME280;8773;43.300;0.394;2022-10-16T07:48:56;99200.63;;;16.13;100.00
17311;BME280;8773;43.300;0.394;2022-10-16T07:51:25;99201.75;;;16.36;100.00
17311;BME280;8773;43.300;0.394;2022-10-16T07:53:56;99211.72;;;16.76;100.00
17311;BME280;8773;43.300;0.394;2022-10-16T07:56:24;99216.28;;;17.00;100.00
17311;BME280;8773;43.300;0.394;2022-10-16T07:58:52;99214.66;;;17.19;100.00
17311;BME280;8773;43.300;0.394;2022-10-16T08:01:20;99216.44;;;17.17;100.00
17311;BME280;8773;43.300;0.394;2022-10-16T08:03:50;99212.03;;;17.20;100.00
17311;BME280;8773;43.300;0.394;2022-10-16T08:06:21;99215.66;;;17.41;100.00
17311;BME280;8773;43.300;0.394;2022-10-16T08:08:54;99209.59;;;17.57;100.00
17311;BME280;8773;43.300;0.394;2022-10-16T08:11:22;99203.50;;;17.83;100.00
17311;BME280;8773;43.300;0.394;2022-10-16T08:13:51;99214.19;;;18.20;100.00
17311;BME280;8773;43.300;0.394;2022-10-16T08:16:19;99229.16;;;18.68;100.00
17311;BME280;8773;43.300;0.394;2022-10-16T08:18:47;99225.66;;;18.60;100.00
17311;BME280;8773;43.300;0.394;2022-10-16T08:21:20;99219.47;;;18.66;100.00
17311;BME280;8773;43.300;0.394;2022-10-16T08:23:50;99228.25;;;19.12;100.00
17311;BME280;8773;43.300;0.394;2022-10-16T08:26:24;99226.34;;;19.56;100.00
17311;BME280;8773;43.300;0.394;2022-10-16T08:28:53;99231.53;;;19.88;100.00
17311;BME280;8773;43.300;0.394;2022-10-16T08:31:21;99227.88;;;20.11;100.00
17311;BME280;8773;43.300;0.394;2022-10-16T08:33:50;99232.16;;;20.29;100.00
17311;BME280;8773;43.300;0.394;2022-10-16T08:36:20;99240.03;;;20.46;100.00
17311;BME280;8773;43.300;0.394;2022-10-16T08:38:49;99235.59;;;20.49;100.00
17311;BME280;8773;43.300;0.394;2022-10-16T08:47:39;99252.09;;;20.85;100.00
17311;BME280;8773;43.300;0.394;2022-10-16T08:50:13;99246.69;;;20.99;100.00
17311;BME280;8773;43.300;0.394;2022-10-16T08:52:44;99242.91;;;21.23;100.00
17311;BME280;8773;43.300;0.394;2022-10-16T08:55:24;99241.03;;;21.33;100.00
17311;BME280;8773;43.300;0.394;2022-10-16T08:57:56;99245.34;;;21.43;100.00
17311;BME280;8773;43.300;0.394;2022-10-16T09:00:24;99246.13;;;21.51;100.00
17311;BME280;8773;43.300;0.394;2022-10-16T09:03:02;99255.94;;;21.44;100.00
17311;BME280;8773;43.300;0.394;2022-10-16T09:05:48;99256.81;;;21.43;100.00
17311;BME280;8773;43.300;0.394;2022-10-16T09:08:28;99237.38;;;21.44;100.00
17311;BME280;8773;43.300;0.394;2022-10-16T09:11:02;99243.44;;;21.56;100.00
17311;BME280;8773;43.300;0.394;2022-10-16T09:13:39;99242.41;;;21.67;100.00
17311;BME280;8773;43.300;0.394;2022-10-16T09:16:16;99243.06;;;21.85;100.00
17311;BME280;8773;43.300;0.394;2022-10-16T09:18:53;99237.69;;;21.91;100.00
17311;BME280;8773;43.300;0.394;2022-10-16T09:21:24;99237.56;;;22.00;100.00
17311;BME280;8773;43.300;0.394;2022-10-16T09:23:57;99226.13;;;21.97;100.00
17311;BME280;8773;43.300;0.394;2022-10-16T09:26:27;99222.22;;;22.22;100.00
17311;BME280;8773;43.300;0.394;2022-10-16T09:28:55;99222.91;;;22.35;100.00
17311;BME280;8773;43.300;0.394;2022-10-16T09:31:23;99224.44;;;22.48;100.00
17311;BME280;8773;43.300;0.394;2022-10-16T09:33:55;99228.53;;;22.72;100.00
17311;BME280;8773;43.300;0.394;2022-10-16T09:36:27;99230.97;;;22.85;100.00
17311;BME280;8773;43.300;0.394;2022-10-16T09:39:04;99228.19;;;22.91;100.00
17311;BME280;8773;43.300;0.394;2022-10-16T09:41:34;99226.31;;;22.97;100.00
17311;BME280;8773;43.300;0.394;2022-10-16T09:44:18;99228.03;;;23.01;100.00
17311;BME280;8773;43.300;0.394;2022-10-16T09:46:47;99220.84;;;23.05;100.00
17311;BME280;8773;43.300;0.394;2022-10-16T09:49:21;99212.06;;;23.01;100.00
17311;BME280;8773;43.300;0.394;2022-10-16T09:51:51;99212.84;;;23.07;100.00
17311;BME280;8773;43.300;0.394;2022-10-16T09:54:21;99207.50;;;23.08;100.00
17311;BME280;8773;43.300;0.394;2022-10-16T09:56:49;99196.75;;;23.13;100.00
17311;BME280;8773;43.300;0.394;2022-10-16T09:59:20;99204.59;;;23.22;100.00
17311;BME280;8773;43.300;0.394;2022-10-16T10:01:51;99202.66;;;23.30;100.00
17311;BME280;8773;43.300;0.394;2022-10-16T10:04:22;99203.44;;;23.37;100.00
17311;BME280;8773;43.300;0.394;2022-10-16T10:06:51;99202.28;;;23.50;100.00
17311;BME280;8773;43.300;0.394;2022-10-16T10:09:24;99197.63;;;23.60;100.00
17311;BME280;8773;43.300;0.394;2022-10-16T10:11:54;99194.78;;;23.69;100.00
17311;BME280;8773;43.300;0.394;2022-10-16T10:14:25;99178.06;;;23.62;100.00
17311;BME280;8773;43.300;0.394;2022-10-16T10:17:09;99184.06;;;23.71;100.00
17311;BME280;8773;43.300;0.394;2022-10-16T10:19:40;99188.28;;;23.82;100.00
17311;BME280;8773;43.300;0.394;2022-10-16T10:22:20;99188.09;;;23.90;100.00
17311;BME280;8773;43.300;0.394;2022-10-16T10:28:18;99186.66;;;23.75;100.00
17311;BME280;8773;43.300;0.394;2022-10-16T10:30:56;99183.22;;;23.70;100.00
17311;BME280;8773;43.300;0.394;2022-10-16T10:33:37;99185.44;;;23.90;100.00
17311;BME280;8773;43.300;0.394;2022-10-16T10:36:16;99177.22;;;24.01;100.00
17311;BME280;8773;43.300;0.394;2022-10-16T10:38:50;99178.91;;;24.05;100.00
17311;BME280;8773;43.300;0.394;2022-10-16T10:41:53;99178.88;;;24.06;100.00
17311;BME280;8773;43.300;0.394;2022-10-16T10:44:31;99188.59;;;24.09;100.00
17311;BME280;8773;43.300;0.394;2022-10-16T10:47:13;99186.50;;;24.22;100.00
17311;BME280;8773;43.300;0.394;2022-10-16T10:49:54;99188.63;;;24.45;100.00
17311;BME280;8773;43.300;0.394;2022-10-16T10:52:36;99192.97;;;24.49;100.00
17311;BME280;8773;43.300;0.394;2022-10-16T10:55:17;99191.56;;;24.33;100.00
17311;BME280;8773;43.300;0.394;2022-10-16T10:58:08;99196.81;;;24.36;100.00
17311;BME280;8773;43.300;0.394;2022-10-16T11:00:46;99192.59;;;24.28;100.00
17311;BME280;8773;43.300;0.394;2022-10-16T11:03:31;99193.88;;;24.11;100.00
17311;BME280;8773;43.300;0.394;2022-10-16T11:06:06;99197.56;;;24.05;100.00
17311;BME280;8773;43.300;0.394;2022-10-16T11:08:37;99198.81;;;23.89;100.00
17311;BME280;8773;43.300;0.394;2022-10-16T11:11:11;99206.16;;;23.76;100.00
17311;BME280;8773;43.300;0.394;2022-10-16T11:13:48;99203.56;;;23.74;100.00
17311;BME280;8773;43.300;0.394;2022-10-16T11:16:27;99200.16;;;24.08;100.00
17311;BME280;8773;43.300;0.394;2022-10-16T11:18:59;99198.63;;;24.35;100.00
17311;BME280;8773;43.300;0.394;2022-10-16T11:21:36;99192.72;;;24.60;100.00
17311;BME280;8773;43.300;0.394;2022-10-16T11:24:15;99196.66;;;24.79;100.00
17311;BME280;8773;43.300;0.394;2022-10-16T11:26:45;99198.00;;;24.96;100.00
17311;BME280;8773;43.300;0.394;2022-10-16T11:29:19;99201.47;;;24.99;100.00
17311;BME280;8773;43.300;0.394;2022-10-16T11:31:54;99193.75;;;25.23;100.00
17311;BME280;8773;43.300;0.394;2022-10-16T11:34:28;99195.16;;;25.36;100.00
17311;BME280;8773;43.300;0.394;2022-10-16T11:37:08;99189.28;;;25.54;100.00
17311;BME280;8773;43.300;0.394;2022-10-16T11:39:38;99195.97;;;25.69;100.00
17311;BME280;8773;43.300;0.394;2022-10-16T11:42:11;99195.50;;;25.86;99.75
17311;BME280;8773;43.300;0.394;2022-10-16T11:44:47;99192.72;;;25.89;99.22
17311;BME280;8773;43.300;0.394;2022-10-16T11:47:26;99196.25;;;25.90;100.00
17311;BME280;8773;43.300;0.394;2022-10-16T11:50:23;99188.16;;;25.93;96.06
17311;BME280;8773;43.300;0.394;2022-10-16T11:52:57;99188.97;;;25.95;96.35
17311;BME280;8773;43.300;0.394;2022-10-16T11:55:31;99192.50;;;25.97;94.42
17311;BME280;8773;43.300;0.394;2022-10-16T11:58:04;99194.41;;;25.93;94.17
17311;BME280;8773;43.300;0.394;2022-10-16T12:00:38;99191.25;;;26.09;95.48
17311;BME280;8773;43.300;0.394;2022-10-16T12:03:17;99187.59;;;26.38;95.52
17311;BME280;8773;43.300;0.394;2022-10-16T12:06:01;99186.19;;;26.56;97.76
17311;BME280;8773;43.300;0.394;2022-10-16T12:08:33;99191.97;;;26.69;90.07
17311;BME280;8773;43.300;0.394;2022-10-16T12:11:09;99196.66;;;26.62;91.35
17311;BME280;8773;43.300;0.394;2022-10-16T12:13:47;99190.09;;;26.46;93.07
17311;BME280;8773;43.300;0.394;2022-10-16T12:16:23;99187.25;;;26.22;93.15
17311;BME280;8773;43.300;0.394;2022-10-16T12:19:10;99186.56;;;26.15;95.58
17311;BME280;8773;43.300;0.394;2022-10-16T12:21:40;99189.03;;;26.21;98.19
17311;BME280;8773;43.300;0.394;2022-10-16T12:24:20;99186.22;;;26.26;99.60
17311;BME280;8773;43.300;0.394;2022-10-16T12:26:51;99190.25;;;26.39;95.75
17311;BME280;8773;43.300;0.394;2022-10-16T12:29:26;99188.22;;;26.48;92.87
17311;BME280;8773;43.300;0.394;2022-10-16T12:31:56;99190.81;;;26.51;87.82
17311;BME280;8773;43.300;0.394;2022-10-16T12:34:37;99187.81;;;26.60;85.73
17311;BME280;8773;43.300;0.394;2022-10-16T12:37:13;99190.78;;;26.77;85.68
17311;BME280;8773;43.300;0.394;2022-10-16T12:39:42;99194.28;;;26.79;85.72
17311;BME280;8773;43.300;0.394;2022-10-16T12:42:23;99192.00;;;26.94;85.64
17311;BME280;8773;43.300;0.394;2022-10-16T12:44:52;99188.78;;;26.84;84.85
17311;BME280;8773;43.300;0.394;2022-10-16T12:47:23;99181.06;;;27.00;81.90
17311;BME280;8773;43.300;0.394;2022-10-16T12:49:54;99186.81;;;27.16;81.29
17311;BME280;8773;43.300;0.394;2022-10-16T12:52:27;99186.44;;;27.25;80.65
17311;BME280;8773;43.300;0.394;2022-10-16T12:54:56;99185.94;;;27.39;79.85
17311;BME280;8773;43.300;0.394;2022-10-16T12:57:40;99182.28;;;27.41;77.53
17311;BME280;8773;43.300;0.394;2022-10-16T13:00:16;99176.94;;;27.41;76.59
17311;BME280;8773;43.300;0.394;2022-10-16T13:03:08;99178.31;;;27.52;78.35
17311;BME280;8773;43.300;0.394;2022-10-16T13:05:59;99177.66;;;27.45;77.41
17311;BME280;8773;43.300;0.394;2022-10-16T13:08:46;99170.34;;;27.50;79.29
17311;BME280;8773;43.300;0.394;2022-10-16T13:11:23;99161.00;;;27.60;79.00
17311;BME280;8773;43.300;0.394;2022-10-16T13:14:07;99158.81;;;27.48;78.20
17311;BME280;8773;43.300;0.394;2022-10-16T13:16:48;99164.47;;;27.15;79.25
17311;BME280;8773;43.300;0.394;2022-10-16T13:19:22;99167.53;;;27.29;79.90
17311;BME280;8773;43.300;0.394;2022-10-16T13:22:03;99173.38;;;27.41;75.61
17311;BME280;8773;43.300;0.394;2022-10-16T13:24:52;99167.19;;;27.62;74.85
17311;BME280;8773;43.300;0.394;2022-10-16T13:27:31;99164.53;;;27.86;74.07
17311;BME280;8773;43.300;0.394;2022-10-16T13:30:11;99161.47;;;27.95;70.67
17311;BME280;8773;43.300;0.394;2022-10-16T13:32:40;99171.59;;;28.10;70.21
17311;BME280;8773;43.300;0.394;2022-10-16T13:35:19;99170.28;;;28.21;66.41
17311;BME280;8773;43.300;0.394;2022-10-16T13:37:49;99163.97;;;28.23;67.44